Terminal Aerodrome Forecast
Issued by NWS Portland, OR

Home | Current Version | Previous Version | Text Only | Print | Product List | Glossary On
Versions: 1 2 3 4 5 6 7 8 9 10 11 12 13 14 15 16 17 18 19 20 21
000
FTUS46 KPQR 172112 AAA
TAFEUG
TAF AMD
KEUG 172112Z 1721/1818 21010KT P6SM SCT025 BKN040
     FM172300 26007KT 6SM BR VCSH SCT015 BKN025 OVC040
     FM180100 26005KT P6SM VCSH SCT025 BKN040
     FM180800 18003KT 2SM BR SCT004 BKN100
     FM181100 17007KT P6SM SCT015 BKN050 OVC100=

USA.gov is the U.S. government's official web portal to all federal, state and local government web resources and services.